createdAt,value
2019-04-03T00:00:28.755Z,0
2019-04-03T00:01:28.732Z,0
2019-04-03T00:02:28.737Z,0
2019-04-03T00:03:28.716Z,0
2019-04-03T00:04:28.759Z,0
2019-04-03T00:05:28.738Z,0
2019-04-03T00:06:28.611Z,0
2019-04-03T00:07:28.580Z,0
2019-04-03T00:08:28.557Z,0
2019-04-03T00:09:28.553Z,0
2019-04-03T00:10:28.565Z,0
2019-04-03T00:11:28.496Z,0
2019-04-03T00:12:28.584Z,0
2019-04-03T00:13:28.493Z,0
2019-04-03T00:14:28.420Z,0
2019-04-03T00:15:28.461Z,0
2019-04-03T00:16:28.374Z,0
2019-04-03T00:17:28.344Z,0
2019-04-03T00:18:28.628Z,0
2019-04-03T00:19:28.334Z,0
2019-04-03T00:20:28.277Z,0
2019-04-03T00:21:28.253Z,0
2019-04-03T00:22:29.271Z,0
2019-04-03T00:23:29.848Z,0
2019-04-03T00:24:29.728Z,0
2019-04-03T00:25:29.666Z,0
2019-04-03T00:26:32.984Z,0
2019-04-03T00:27:29.627Z,0
2019-04-03T00:28:29.803Z,0
2019-04-03T00:29:29.884Z,0
2019-04-03T00:30:29.536Z,0
2019-04-03T00:31:30.144Z,0
2019-04-03T00:32:30.363Z,0
2019-04-03T00:33:30.311Z,0
2019-04-03T00:34:30.388Z,0
2019-04-03T00:35:30.395Z,0
2019-04-03T00:36:30.122Z,0
2019-04-03T00:37:30.052Z,0
2019-04-03T00:38:29.066Z,0
2019-04-03T00:39:29.537Z,0
2019-04-03T00:40:29.614Z,0
2019-04-03T00:41:29.523Z,0
2019-04-03T00:42:29.659Z,0
2019-04-03T00:43:29.746Z,0
2019-04-03T00:44:29.374Z,0
2019-04-03T00:45:29.358Z,0
2019-04-03T00:46:29.767Z,0
2019-04-03T00:47:30.223Z,0
2019-04-03T00:48:29.821Z,0
2019-04-03T00:49:30.667Z,0
2019-04-03T00:50:29.357Z,0
2019-04-03T00:51:29.571Z,0
2019-04-03T00:52:29.775Z,0
2019-04-03T00:53:29.805Z,0
2019-04-03T00:54:30.849Z,0
2019-04-03T00:55:29.282Z,0
2019-04-03T00:56:29.103Z,0
2019-04-03T00:57:29.298Z,0
2019-04-03T00:58:28.299Z,0
2019-04-03T00:59:28.732Z,0
2019-04-03T01:00:28.938Z,0
2019-04-03T01:01:29.310Z,0
2019-04-03T01:02:28.180Z,0
2019-04-03T01:03:28.227Z,0
2019-04-03T01:04:28.744Z,0
2019-04-03T01:05:28.461Z,0
2019-04-03T01:06:28.618Z,0
2019-04-03T01:07:27.498Z,0
2019-04-03T01:08:27.679Z,0
2019-04-03T01:09:29.017Z,0
2019-04-03T01:10:27.829Z,0
2019-04-03T01:11:27.139Z,0
2019-04-03T01:12:26.995Z,0
2019-04-03T01:13:27.147Z,0
2019-04-03T01:14:26.942Z,0
2019-04-03T01:15:27.092Z,0
2019-04-03T01:16:26.929Z,0
2019-04-03T01:17:26.960Z,0
2019-04-03T01:18:26.932Z,0
2019-04-03T01:19:26.581Z,0
2019-04-03T01:20:26.970Z,0
2019-04-03T01:21:26.879Z,0
2019-04-03T01:22:26.778Z,0
2019-04-03T01:23:26.707Z,0
2019-04-03T01:24:26.911Z,0
2019-04-03T01:25:26.668Z,0
2019-04-03T01:26:26.638Z,0
2019-04-03T01:27:26.745Z,0
2019-04-03T01:28:26.588Z,0
2019-04-03T01:29:26.567Z,0
2019-04-03T01:30:26.553Z,0
2019-04-03T01:31:26.517Z,0
2019-04-03T01:32:26.487Z,0
2019-04-03T01:33:26.635Z,0
2019-04-03T01:34:26.627Z,0
2019-04-03T01:35:26.414Z,0
2019-04-03T01:36:26.387Z,0
2019-04-03T01:37:26.536Z,0
2019-04-03T01:38:26.943Z,0
2019-04-03T01:39:28.311Z,0
2019-04-03T01:40:27.999Z,0
2019-04-03T01:41:28.531Z,0
2019-04-03T01:42:28.796Z,0
2019-04-03T01:43:27.950Z,0
2019-04-03T01:44:29.045Z,0
2019-04-03T01:45:28.552Z,0
2019-04-03T01:46:27.551Z,0
2019-04-03T01:47:27.749Z,0
2019-04-03T01:48:26.695Z,0
2019-04-03T01:49:28.025Z,0
2019-04-03T01:50:26.766Z,0
2019-04-03T01:51:26.023Z,0
2019-04-03T01:52:25.865Z,0
2019-04-03T01:53:25.957Z,0
2019-04-03T01:54:26.122Z,0
2019-04-03T01:55:25.916Z,0
2019-04-03T01:56:25.996Z,0
2019-04-03T01:57:25.860Z,0
2019-04-03T01:58:25.911Z,0
2019-04-03T01:59:25.839Z,0
2019-04-03T02:00:25.904Z,0
2019-04-03T02:01:25.808Z,0
2019-04-03T02:02:25.752Z,0
2019-04-03T02:03:25.717Z,0
2019-04-03T02:04:25.754Z,0
2019-04-03T02:05:25.668Z,0
2019-04-03T02:06:25.832Z,0
2019-04-03T02:07:25.613Z,0
2019-04-03T02:08:25.586Z,0
2019-04-03T02:09:25.740Z,0
2019-04-03T02:10:25.776Z,0
2019-04-03T02:11:26.866Z,0
2019-04-03T02:12:27.001Z,0
2019-04-03T02:13:29.038Z,0
2019-04-03T02:14:28.367Z,0
2019-04-03T02:15:28.448Z,0
2019-04-03T02:16:27.485Z,0
2019-04-03T02:17:28.060Z,0
2019-04-03T02:18:27.274Z,0
2019-04-03T02:19:28.286Z,0
2019-04-03T02:20:26.455Z,0
2019-04-03T02:21:27.151Z,0
2019-04-03T02:22:25.233Z,0
2019-04-03T02:23:25.400Z,0
2019-04-03T02:24:25.178Z,0
2019-04-03T02:25:25.217Z,0
2019-04-03T02:26:25.270Z,0
2019-04-03T02:27:25.117Z,0
2019-04-03T02:28:25.096Z,0
2019-04-03T02:29:25.100Z,0
2019-04-03T02:30:25.334Z,0
2019-04-03T02:31:27.053Z,0
2019-04-03T02:32:28.364Z,0
2019-04-03T02:33:28.126Z,0
2019-04-03T02:34:24.940Z,0
2019-04-03T02:35:25.286Z,0
2019-04-03T02:36:25.218Z,0
2019-04-03T02:37:25.304Z,0
2019-04-03T02:38:28.816Z,0
2019-04-03T02:39:28.927Z,0
2019-04-03T02:40:24.821Z,0
2019-04-03T02:41:24.821Z,0
2019-04-03T02:42:25.036Z,0
2019-04-03T02:43:24.763Z,0
2019-04-03T02:44:26.874Z,0
2019-04-03T02:45:27.845Z,0
2019-04-03T02:46:26.886Z,0
2019-04-03T02:47:24.861Z,0
2019-04-03T02:48:24.586Z,0
2019-04-03T02:49:24.573Z,0
2019-04-03T02:50:24.722Z,0
2019-04-03T02:51:27.305Z,0
2019-04-03T02:52:27.744Z,0
2019-04-03T02:53:24.830Z,0
2019-04-03T02:54:24.479Z,0
2019-04-03T02:55:24.919Z,0
2019-04-03T02:56:24.513Z,0
2019-04-03T02:57:25.547Z,0
2019-04-03T02:58:29.360Z,0
2019-04-03T02:59:27.897Z,0
2019-04-03T03:00:24.366Z,0
2019-04-03T03:01:24.524Z,0
2019-04-03T03:02:24.395Z,0
2019-04-03T03:03:25.796Z,0
2019-04-03T03:04:27.864Z,0
2019-04-03T03:05:26.613Z,0
2019-04-03T03:06:24.518Z,0
2019-04-03T03:07:24.116Z,0
2019-04-03T03:08:27.972Z,0
2019-04-03T03:09:24.248Z,0
2019-04-03T03:10:30.673Z,0
2019-04-03T03:11:28.525Z,0
2019-04-03T03:12:24.896Z,0
2019-04-03T03:13:23.945Z,0
2019-04-03T03:14:24.142Z,0
2019-04-03T03:15:23.665Z,0
2019-04-03T03:16:26.015Z,0
2019-04-03T03:17:27.571Z,0
2019-04-03T03:18:24.572Z,0
2019-04-03T03:19:24.305Z,0
2019-04-03T03:20:23.770Z,0
2019-04-03T03:21:23.982Z,0
2019-04-03T03:22:25.905Z,0
2019-04-03T03:23:27.251Z,0
2019-04-03T03:24:23.664Z,0
2019-04-03T03:25:23.900Z,0
2019-04-03T03:26:23.628Z,0
2019-04-03T03:27:23.824Z,0
2019-04-03T03:28:23.348Z,0
2019-04-03T03:29:32.276Z,0
2019-04-03T03:31:07.659Z,0
2019-04-03T03:32:07.703Z,0
2019-04-03T03:32:41.952Z,0
2019-04-03T03:33:45.278Z,0
2019-04-03T03:35:20.396Z,0
2019-04-03T03:35:55.017Z,0
2019-04-03T03:36:47.494Z,0
2019-04-03T03:37:46.130Z,0
2019-04-03T03:38:47.817Z,0
2019-04-03T03:39:50.023Z,0
2019-04-03T03:40:49.863Z,0
2019-04-03T03:41:46.060Z,0
2019-04-03T03:42:46.234Z,0
2019-04-03T03:43:46.431Z,0
2019-04-03T03:44:52.137Z,0
2019-04-03T03:45:46.076Z,0
2019-04-03T03:46:45.627Z,0
2019-04-03T03:47:45.937Z,0
2019-04-03T03:48:50.653Z,0
2019-04-03T03:49:48.409Z,0
2019-04-03T03:50:46.013Z,0
2019-04-03T03:51:45.868Z,0
2019-04-03T03:52:46.548Z,0
2019-04-03T03:53:49.328Z,0
2019-04-03T03:54:49.535Z,0
2019-04-03T03:55:45.982Z,0
2019-04-03T03:56:45.159Z,0
2019-04-03T03:57:47.626Z,0
2019-04-03T03:58:49.755Z,0
2019-04-03T03:59:49.336Z,0
2019-04-03T04:00:51.136Z,0
2019-04-03T04:01:45.391Z,0
2019-04-03T04:02:49.921Z,0
2019-04-03T04:03:49.190Z,0
2019-04-03T04:04:49.871Z,0
2019-04-03T04:05:45.996Z,0
2019-04-03T04:06:45.336Z,0
2019-04-03T04:07:45.868Z,0
2019-04-03T04:08:48.966Z,0
2019-04-03T04:09:49.436Z,0
2019-04-03T04:10:45.070Z,0
2019-04-03T04:11:45.474Z,0
2019-04-03T04:12:48.725Z,0
2019-04-03T04:13:47.863Z,0
2019-04-03T04:14:45.513Z,0
2019-04-03T04:15:45.099Z,0
2019-04-03T04:16:45.539Z,0
2019-04-03T04:17:48.437Z,0
2019-04-03T04:18:45.161Z,0
2019-04-03T04:19:44.956Z,0
2019-04-03T04:20:45.992Z,0
2019-04-03T04:21:48.218Z,0
2019-04-03T04:22:48.520Z,0
2019-04-03T04:23:44.464Z,0
2019-04-03T04:24:44.647Z,0
2019-04-03T04:25:48.108Z,0
2019-04-03T04:26:44.610Z,0
2019-04-03T04:27:46.118Z,0
2019-04-03T04:28:46.761Z,0
2019-04-03T04:29:46.820Z,0
2019-04-03T04:30:47.132Z,0
2019-04-03T04:31:46.869Z,0
2019-04-03T04:32:46.926Z,0
2019-04-03T04:33:45.727Z,4
2019-04-03T04:34:44.386Z,4
2019-04-03T04:35:44.458Z,4
2019-04-03T04:36:44.614Z,4
2019-04-03T04:37:47.157Z,4
2019-04-03T04:38:44.492Z,8
2019-04-03T04:39:44.468Z,8
2019-04-03T04:40:44.231Z,8
2019-04-03T04:41:44.666Z,12
2019-04-03T04:42:44.411Z,12
2019-04-03T04:43:46.728Z,16
2019-04-03T04:44:45.982Z,20
2019-04-03T04:45:47.206Z,20
2019-04-03T04:46:46.504Z,28
2019-04-03T04:47:46.380Z,28
2019-04-03T04:48:43.792Z,32
2019-04-03T04:49:44.006Z,36
2019-04-03T04:50:44.329Z,36
2019-04-03T04:51:44.025Z,40
2019-04-03T04:52:43.913Z,40
2019-04-03T04:53:43.953Z,40
2019-04-03T04:54:45.313Z,32
2019-04-03T04:55:43.846Z,36
2019-04-03T04:56:45.476Z,40
2019-04-03T04:57:45.951Z,44
2019-04-03T04:58:45.937Z,56
2019-04-03T04:59:46.862Z,64
2019-04-03T05:00:44.770Z,72
2019-04-03T05:01:43.741Z,76
2019-04-03T05:02:43.759Z,80
2019-04-03T05:03:43.643Z,88
2019-04-03T05:04:43.897Z,92
2019-04-03T05:05:43.734Z,100
2019-04-03T05:06:43.550Z,104
2019-04-03T05:07:43.692Z,108
2019-04-03T05:08:43.873Z,116
2019-04-03T05:09:43.643Z,124
2019-04-03T05:10:44.292Z,128
2019-04-03T05:11:45.993Z,144
2019-04-03T05:12:48.195Z,156
2019-04-03T05:13:46.266Z,168
2019-04-03T05:14:43.640Z,180
2019-04-03T05:15:43.325Z,196
2019-04-03T05:16:43.529Z,204
2019-04-03T05:17:43.034Z,208
2019-04-03T05:18:43.782Z,204
2019-04-03T05:19:43.216Z,196
2019-04-03T05:20:43.358Z,196
2019-04-03T05:21:43.361Z,204
2019-04-03T05:22:43.371Z,216
2019-04-03T05:23:43.119Z,248
2019-04-03T05:24:43.234Z,284
2019-04-03T05:25:43.194Z,348
2019-04-03T05:26:43.406Z,428
2019-04-03T05:27:43.059Z,492
2019-04-03T05:28:57.674Z,572
2019-04-03T05:29:43.074Z,608
2019-04-03T05:30:44.866Z,624
2019-04-03T05:31:45.630Z,652
2019-04-03T05:32:45.571Z,680
2019-04-03T05:33:46.419Z,704
2019-04-03T05:34:46.051Z,748
2019-04-03T05:35:46.204Z,788
2019-04-03T05:36:42.796Z,796
2019-04-03T05:37:42.796Z,788
2019-04-03T05:38:45.290Z,808
2019-04-03T05:39:42.834Z,836
2019-04-03T05:40:42.728Z,840
2019-04-03T05:41:42.652Z,848
2019-04-03T05:42:42.930Z,888
2019-04-03T05:43:42.734Z,944
2019-04-03T05:44:42.835Z,948
2019-04-03T05:45:45.700Z,940
2019-04-03T05:46:44.679Z,976
2019-04-03T05:47:46.124Z,1032
2019-04-03T05:48:42.593Z,1080
2019-04-03T05:49:42.439Z,1160
2019-04-03T05:50:43.734Z,1220
2019-04-03T05:51:42.562Z,1232
2019-04-03T05:52:43.021Z,1264
2019-04-03T05:53:44.583Z,1272
2019-04-03T05:54:49.198Z,1272
2019-04-03T05:55:45.308Z,1276
2019-04-03T05:56:45.411Z,1224
2019-04-03T05:57:44.780Z,1132
2019-04-03T05:58:54.300Z,1068
2019-04-03T05:59:43.952Z,1052
2019-04-03T06:00:45.063Z,1112
2019-04-03T06:01:46.639Z,1204
2019-04-03T06:02:42.224Z,1272
2019-04-03T06:03:51.139Z,1404
2019-04-03T06:04:45.331Z,1496
2019-04-03T06:05:43.858Z,1520
2019-04-03T06:06:42.052Z,1556
2019-04-03T06:07:42.348Z,1644
2019-04-03T06:08:42.491Z,1740
2019-04-03T06:09:42.198Z,1872
2019-04-03T06:10:44.593Z,1968
2019-04-03T06:11:45.296Z,1968
2019-04-03T06:12:47.485Z,1740
2019-04-03T06:13:42.234Z,1460
2019-04-03T06:14:41.801Z,1276
2019-04-03T06:15:42.061Z,1232
2019-04-03T06:16:41.739Z,1264
2019-04-03T06:17:41.728Z,1388
2019-04-03T06:18:41.877Z,1524
2019-04-03T06:19:44.614Z,1596
2019-04-03T06:20:43.437Z,1660
2019-04-03T06:21:41.819Z,1868
2019-04-03T06:22:41.686Z,2224
2019-04-03T06:23:41.748Z,2596
2019-04-03T06:24:41.742Z,2804
2019-04-03T06:25:41.875Z,2696
2019-04-03T06:26:46.983Z,2380
2019-04-03T06:27:46.022Z,2200
2019-04-03T06:28:42.750Z,2292
2019-04-03T06:29:41.667Z,2692
2019-04-03T06:30:41.523Z,3004
2019-04-03T06:31:41.355Z,3052
2019-04-03T06:32:41.353Z,2968
2019-04-03T06:33:43.714Z,2784
2019-04-03T06:34:45.956Z,2576
2019-04-03T06:35:44.500Z,2512
2019-04-03T06:36:41.531Z,2652
2019-04-03T06:37:41.684Z,2856
2019-04-03T06:38:41.418Z,3108
2019-04-03T06:39:41.485Z,3360
2019-04-03T06:40:44.477Z,3472
2019-04-03T06:41:44.051Z,3460
2019-04-03T06:42:43.974Z,3384
2019-04-03T06:43:41.503Z,3224
2019-04-03T06:44:41.030Z,2852
2019-04-03T06:45:43.106Z,2364
2019-04-03T06:46:41.370Z,1976
2019-04-03T06:47:41.183Z,1828
2019-04-03T06:48:43.350Z,1832
2019-04-03T06:49:43.275Z,1804
2019-04-03T06:50:40.867Z,1640
2019-04-03T06:51:41.067Z,1472
2019-04-03T06:52:40.884Z,1372
2019-04-03T06:53:40.792Z,1304
2019-04-03T06:54:43.869Z,1268
2019-04-03T06:55:43.146Z,1280
2019-04-03T06:56:43.399Z,1320
2019-04-03T06:57:43.732Z,1368
2019-04-03T06:58:49.518Z,1440
2019-04-03T06:59:40.823Z,1492
2019-04-03T07:00:40.133Z,1572
2019-04-03T07:01:40.364Z,1704
2019-04-03T07:02:40.908Z,1828
2019-04-03T07:03:41.962Z,1876
2019-04-03T07:04:42.571Z,1980
2019-04-03T07:05:43.473Z,2212
2019-04-03T07:06:40.448Z,2396
2019-04-03T07:07:42.697Z,2556
2019-04-03T07:08:45.936Z,2568
2019-04-03T07:09:43.738Z,2456
2019-04-03T07:10:58.628Z,2300
2019-04-03T07:11:43.186Z,2228
2019-04-03T07:12:42.081Z,2160
2019-04-03T07:13:41.550Z,2172
2019-04-03T07:14:40.733Z,2208
2019-04-03T07:15:41.033Z,2284
2019-04-03T07:16:43.577Z,2464
2019-04-03T07:17:40.168Z,2648
2019-04-03T07:18:41.979Z,2756
2019-04-03T07:19:42.514Z,2784
2019-04-03T07:20:40.086Z,2932
2019-04-03T07:21:40.222Z,3192
2019-04-03T07:22:40.038Z,3444
2019-04-03T07:23:40.006Z,3468
2019-04-03T07:24:39.981Z,3264
2019-04-03T07:25:41.425Z,3016
2019-04-03T07:26:42.709Z,2756
2019-04-03T07:27:44.566Z,2460
2019-04-03T07:28:43.304Z,2288
2019-04-03T07:29:39.899Z,2244
2019-04-03T07:30:40.095Z,2216
2019-04-03T07:31:39.808Z,2284
2019-04-03T07:32:40.033Z,2444
2019-04-03T07:33:39.868Z,2616
2019-04-03T07:34:41.602Z,2772
2019-04-03T07:35:42.041Z,2988
2019-04-03T07:36:41.213Z,3348
2019-04-03T07:37:39.779Z,3836
2019-04-03T07:38:39.898Z,4348
2019-04-03T07:39:39.734Z,4920
2019-04-03T07:40:39.841Z,5548
2019-04-03T07:41:44.136Z,6264
2019-04-03T07:42:39.279Z,6656
2019-04-03T07:43:39.592Z,6772
2019-04-03T07:44:39.937Z,6772
2019-04-03T07:45:40.379Z,6852
2019-04-03T07:46:40.910Z,6708
2019-04-03T07:47:41.804Z,6808
2019-04-03T07:48:43.138Z,6948
2019-04-03T07:49:41.699Z,6940
2019-04-03T07:50:43.804Z,7316
2019-04-03T07:51:39.285Z,8024
2019-04-03T07:52:39.514Z,8728
2019-04-03T07:53:39.621Z,8960
2019-04-03T07:54:39.557Z,9044
2019-04-03T07:55:39.611Z,9044
2019-04-03T07:56:39.356Z,8768
2019-04-03T07:57:41.513Z,8396
2019-04-03T07:58:39.952Z,7836
2019-04-03T07:59:40.852Z,7056
2019-04-03T08:00:41.439Z,6328
2019-04-03T08:01:41.255Z,5804
2019-04-03T08:02:47.103Z,5536
2019-04-03T08:03:39.168Z,5556
2019-04-03T08:04:38.972Z,5688
2019-04-03T08:05:39.224Z,5696
2019-04-03T08:06:41.743Z,5860
2019-04-03T08:07:38.863Z,6016
2019-04-03T08:08:38.829Z,5956
2019-04-03T08:09:38.843Z,5872
2019-04-03T08:10:42.412Z,5760
2019-04-03T08:11:42.123Z,5480
2019-04-03T08:12:42.813Z,5296
2019-04-03T08:13:43.009Z,5388
2019-04-03T08:14:39.068Z,5628
2019-04-03T08:15:38.906Z,5948
2019-04-03T08:16:42.046Z,6216
2019-04-03T08:17:38.612Z,6312
2019-04-03T08:18:38.587Z,6288
2019-04-03T08:19:38.319Z,6240
2019-04-03T08:20:38.484Z,6336
2019-04-03T08:21:39.142Z,6420
2019-04-03T08:22:41.026Z,6452
2019-04-03T08:23:41.236Z,6516
2019-04-03T08:24:39.641Z,6664
2019-04-03T08:25:38.398Z,6796
2019-04-03T08:26:38.585Z,6812
2019-04-03T08:27:38.409Z,6720
2019-04-03T08:28:38.320Z,6436
2019-04-03T08:29:43.460Z,6272
2019-04-03T08:30:41.687Z,6244
2019-04-03T08:31:38.576Z,6224
2019-04-03T08:32:38.237Z,6228
2019-04-03T08:33:40.552Z,6400
2019-04-03T08:34:39.207Z,6656
2019-04-03T08:35:41.896Z,6896
2019-04-03T08:36:41.128Z,7284
2019-04-03T08:37:43.564Z,7860
2019-04-03T08:38:38.609Z,8460
2019-04-03T08:39:38.095Z,8928
2019-04-03T08:40:38.273Z,9164
2019-04-03T08:41:41.285Z,9648
2019-04-03T08:42:39.994Z,10432
2019-04-03T08:43:40.122Z,11556
2019-04-03T08:44:40.268Z,12900
2019-04-03T08:45:40.658Z,13796
2019-04-03T08:46:37.847Z,14208
2019-04-03T08:47:40.016Z,14712
2019-04-03T08:48:37.800Z,15004
2019-04-03T08:49:37.773Z,15024
2019-04-03T08:50:38.350Z,15028
2019-04-03T08:51:41.132Z,14848
2019-04-03T08:52:40.027Z,14200
2019-04-03T08:53:41.295Z,13240
2019-04-03T08:54:37.804Z,12440
2019-04-03T08:55:37.736Z,11856
2019-04-03T08:56:37.711Z,11468
2019-04-03T08:57:37.734Z,11164
2019-04-03T08:58:37.541Z,10936
2019-04-03T08:59:37.610Z,10552
2019-04-03T09:00:39.732Z,10212
2019-04-03T09:01:40.782Z,10264
2019-04-03T09:02:37.903Z,10796
2019-04-03T09:03:37.700Z,11740
2019-04-03T09:04:37.745Z,12620
2019-04-03T09:05:37.683Z,13060
2019-04-03T09:06:37.447Z,13176
2019-04-03T09:07:37.328Z,13184
2019-04-03T09:08:37.305Z,13368
2019-04-03T09:09:39.807Z,13808
2019-04-03T09:10:42.555Z,14336
2019-04-03T09:11:40.650Z,15276
2019-04-03T09:12:40.214Z,16396
2019-04-03T09:13:37.321Z,17504
2019-04-03T09:14:37.410Z,18784
2019-04-03T09:15:37.411Z,20032
2019-04-03T09:16:38.465Z,21376
2019-04-03T09:17:39.133Z,22496
2019-04-03T09:18:40.869Z,23680
2019-04-03T09:19:37.451Z,24320
2019-04-03T09:20:41.021Z,23968
2019-04-03T09:21:37.510Z,23904
2019-04-03T09:22:36.963Z,23776
2019-04-03T09:23:36.938Z,23520
2019-04-03T09:24:37.585Z,22368
2019-04-03T09:25:39.139Z,21984
2019-04-03T09:26:42.305Z,22976
2019-04-03T09:27:37.898Z,24480
2019-04-03T09:28:37.058Z,24320
2019-04-03T09:29:36.798Z,24352
2019-04-03T09:30:37.077Z,25760
2019-04-03T09:31:36.817Z,26272
2019-04-03T09:32:39.438Z,25344
2019-04-03T09:33:37.424Z,25120
2019-04-03T09:34:40.657Z,25856
2019-04-03T09:35:41.128Z,25696
2019-04-03T09:36:39.633Z,25888
2019-04-03T09:37:39.562Z,26464
2019-04-03T09:38:40.489Z,25984
2019-04-03T09:39:36.579Z,24768
2019-04-03T09:40:36.555Z,24064
2019-04-03T09:41:36.621Z,24672
2019-04-03T09:42:36.512Z,25888
2019-04-03T09:43:39.003Z,25696
2019-04-03T09:44:36.627Z,24416
2019-04-03T09:45:36.919Z,23136
2019-04-03T09:46:38.981Z,22112
2019-04-03T09:47:39.953Z,20608
2019-04-03T09:48:39.215Z,18144
2019-04-03T09:49:38.158Z,15148
2019-04-03T09:50:36.335Z,12572
2019-04-03T09:51:36.315Z,10816
2019-04-03T09:52:56.722Z,9992
2019-04-03T09:53:36.758Z,9840
2019-04-03T09:54:36.671Z,9660
2019-04-03T09:55:42.985Z,9824
2019-04-03T09:56:49.756Z,10352
2019-04-03T09:57:38.720Z,10876
2019-04-03T09:58:39.689Z,11380
2019-04-03T09:59:37.685Z,11984
2019-04-03T10:00:36.509Z,12324
2019-04-03T10:01:36.312Z,12632
2019-04-03T10:02:36.070Z,13044
2019-04-03T10:03:38.543Z,13524
2019-04-03T10:04:36.037Z,13992
2019-04-03T10:05:36.845Z,14312
2019-04-03T10:06:38.695Z,14508
2019-04-03T10:07:41.661Z,14748
2019-04-03T10:08:38.022Z,14972
2019-04-03T10:09:38.263Z,14788
2019-04-03T10:10:36.189Z,14236
2019-04-03T10:11:38.333Z,13464
2019-04-03T10:12:39.296Z,12912
2019-04-03T10:13:36.250Z,12104
2019-04-03T10:14:36.422Z,12388
2019-04-03T10:15:38.368Z,13260
2019-04-03T10:16:38.484Z,13648
2019-04-03T10:17:37.350Z,13676
2019-04-03T10:18:35.703Z,13780
2019-04-03T10:19:36.055Z,13884
2019-04-03T10:20:35.666Z,13752
2019-04-03T10:21:38.828Z,13192
2019-04-03T10:22:35.786Z,12344
2019-04-03T10:23:36.552Z,11664
2019-04-03T10:24:38.042Z,11756
2019-04-03T10:25:38.995Z,12396
2019-04-03T10:26:41.818Z,12864
2019-04-03T10:27:35.762Z,13288
2019-04-03T10:28:35.716Z,13848
2019-04-03T10:29:35.649Z,14456
2019-04-03T10:30:35.432Z,14956
2019-04-03T10:31:35.396Z,15356
2019-04-03T10:32:35.994Z,15872
2019-04-03T10:33:37.925Z,16612
2019-04-03T10:34:37.900Z,17632
2019-04-03T10:35:35.499Z,18560
2019-04-03T10:36:35.638Z,19232
2019-04-03T10:37:35.497Z,19552
2019-04-03T10:38:35.532Z,19840
2019-04-03T10:39:35.551Z,20320
2019-04-03T10:40:35.459Z,20736
2019-04-03T10:41:36.213Z,20576
2019-04-03T10:42:37.562Z,20256
2019-04-03T10:43:37.282Z,19936
2019-04-03T10:44:35.534Z,19648
2019-04-03T10:45:35.077Z,19456
2019-04-03T10:46:35.487Z,19392
2019-04-03T10:47:49.583Z,20064
2019-04-03T10:48:35.850Z,20704
2019-04-03T10:49:38.389Z,21568
2019-04-03T10:50:37.470Z,22176
2019-04-03T10:51:40.442Z,23456
2019-04-03T10:52:35.123Z,24640
2019-04-03T10:53:35.194Z,24800
2019-04-03T10:54:37.462Z,24608
2019-04-03T10:55:36.447Z,24928
2019-04-03T10:56:38.013Z,26208
2019-04-03T10:57:38.398Z,27936
2019-04-03T10:58:37.823Z,29920
2019-04-03T10:59:35.019Z,31936
2019-04-03T11:00:36.377Z,34720
2019-04-03T11:01:34.746Z,35104
2019-04-03T11:02:34.699Z,33984
2019-04-03T11:03:34.931Z,32320
2019-04-03T11:04:34.656Z,31776
2019-04-03T11:05:34.978Z,32160
2019-04-03T11:06:36.589Z,30656
2019-04-03T11:07:34.852Z,28512
2019-04-03T11:08:34.985Z,27488
2019-04-03T11:09:34.903Z,27904
2019-04-03T11:10:34.672Z,29088
2019-04-03T11:11:39.492Z,29184
2019-04-03T11:12:36.824Z,29280
2019-04-03T11:13:37.032Z,28384
2019-04-03T11:14:34.446Z,26784
2019-04-03T11:15:34.806Z,25312
2019-04-03T11:16:34.547Z,24320
2019-04-03T11:17:34.385Z,23744
2019-04-03T11:18:34.809Z,23520
2019-04-03T11:19:35.042Z,24128
2019-04-03T11:20:35.758Z,24416
2019-04-03T11:21:34.635Z,23552
2019-04-03T11:22:50.684Z,22464
2019-04-03T11:23:50.382Z,23520
2019-04-03T11:24:34.051Z,25376
2019-04-03T11:25:33.878Z,28320
2019-04-03T11:26:34.793Z,30592
2019-04-03T11:27:50.915Z,31680
2019-04-03T11:28:36.627Z,31424
2019-04-03T11:29:34.359Z,30080
2019-04-03T11:30:34.339Z,28768
2019-04-03T11:31:44.907Z,27712
2019-04-03T11:32:34.351Z,27872
2019-04-03T11:33:34.425Z,29344
2019-04-03T11:34:34.103Z,30496
2019-04-03T11:35:34.166Z,30272
2019-04-03T11:36:37.628Z,30496
2019-04-03T11:37:37.484Z,31488
2019-04-03T11:38:36.239Z,32672
2019-04-03T11:39:34.213Z,33728
2019-04-03T11:40:33.961Z,32512
2019-04-03T11:41:34.025Z,30656
2019-04-03T11:42:38.021Z,29728
2019-04-03T11:43:36.307Z,29600
2019-04-03T11:44:33.855Z,30048
2019-04-03T11:45:34.144Z,30880
2019-04-03T11:46:33.812Z,31552
2019-04-03T11:47:33.904Z,31936
2019-04-03T11:48:34.754Z,33024
2019-04-03T11:49:33.820Z,35296
2019-04-03T11:50:33.730Z,35552
2019-04-03T11:51:38.932Z,34400
2019-04-03T11:52:35.234Z,31456
2019-04-03T11:53:37.039Z,27328
2019-04-03T11:54:34.010Z,25632
2019-04-03T11:55:34.020Z,27680
2019-04-03T11:56:33.716Z,32000
2019-04-03T11:57:34.467Z,30560
2019-04-03T11:58:33.721Z,29568
2019-04-03T11:59:33.947Z,29024
2019-04-03T12:00:33.627Z,29600
2019-04-03T12:01:33.623Z,33056
2019-04-03T12:02:33.846Z,35392
2019-04-03T12:03:33.849Z,34560
2019-04-03T12:04:33.791Z,31712
2019-04-03T12:05:33.884Z,29920
2019-04-03T12:06:33.548Z,30272
2019-04-03T12:07:33.660Z,31104
2019-04-03T12:08:36.279Z,31392
2019-04-03T12:09:36.151Z,32096
2019-04-03T12:10:37.131Z,33600
2019-04-03T12:11:33.350Z,33248
2019-04-03T12:12:33.347Z,32224
2019-04-03T12:13:33.363Z,36096
2019-04-03T12:14:33.579Z,35520
2019-04-03T12:15:36.238Z,33600
2019-04-03T12:16:33.726Z,32704
2019-04-03T12:17:36.056Z,31456
2019-04-03T12:18:35.674Z,33728
2019-04-03T12:19:33.209Z,37408
2019-04-03T12:20:33.224Z,35008
2019-04-03T12:21:33.539Z,30976
2019-04-03T12:22:33.321Z,26752
2019-04-03T12:23:34.857Z,24384
2019-04-03T12:24:33.226Z,23456
2019-04-03T12:25:38.955Z,21088
2019-04-03T12:26:33.492Z,17296
2019-04-03T12:27:35.504Z,13716
2019-04-03T12:28:33.284Z,11576
2019-04-03T12:29:33.541Z,11380
2019-04-03T12:30:35.077Z,13308
2019-04-03T12:31:33.009Z,16792
2019-04-03T12:32:52.475Z,21728
2019-04-03T12:33:33.272Z,23168
2019-04-03T12:34:32.932Z,24000
2019-04-03T12:35:33.047Z,24128
2019-04-03T12:36:34.964Z,24768
2019-04-03T12:37:33.644Z,24480
2019-04-03T12:38:33.203Z,23264
2019-04-03T12:39:34.459Z,21472
2019-04-03T12:40:36.985Z,19968
2019-04-03T12:41:38.195Z,18752
2019-04-03T12:42:33.124Z,18144
2019-04-03T12:43:33.155Z,17856
2019-04-03T12:44:33.626Z,18208
2019-04-03T12:45:34.926Z,19648
2019-04-03T12:46:35.800Z,20928
2019-04-03T12:47:35.086Z,21600
2019-04-03T12:48:35.394Z,22336
2019-04-03T12:49:32.770Z,23360
2019-04-03T12:50:35.066Z,24704
2019-04-03T12:51:35.970Z,26048
2019-04-03T12:52:32.636Z,27296
2019-04-03T12:53:32.970Z,28800
2019-04-03T12:54:33.402Z,28768
2019-04-03T12:55:33.909Z,27136
2019-04-03T12:56:36.157Z,26208
2019-04-03T12:57:38.126Z,25856
2019-04-03T12:58:36.235Z,25728
2019-04-03T12:59:34.008Z,25632
2019-04-03T13:00:33.085Z,25600
2019-04-03T13:01:32.585Z,25248
2019-04-03T13:02:32.859Z,25600
2019-04-03T13:03:36.298Z,24800
2019-04-03T13:04:37.155Z,23104
2019-04-03T13:05:32.415Z,21824
2019-04-03T13:06:32.748Z,21568
2019-04-03T13:07:33.519Z,22912
2019-04-03T13:08:32.824Z,26016
2019-04-03T13:09:32.426Z,25408
2019-04-03T13:10:50.409Z,23520
2019-04-03T13:11:35.403Z,22464
2019-04-03T13:12:34.659Z,20384
2019-04-03T13:13:37.936Z,17888
2019-04-03T13:14:37.811Z,15568
2019-04-03T13:15:32.278Z,14408
2019-04-03T13:16:32.641Z,14040
2019-04-03T13:17:32.563Z,14604
2019-04-03T13:18:32.695Z,16564
2019-04-03T13:19:33.116Z,18144
2019-04-03T13:20:35.806Z,18304
2019-04-03T13:21:32.117Z,17600
2019-04-03T13:22:32.495Z,16008
2019-04-03T13:23:33.405Z,14648
2019-04-03T13:24:32.430Z,15072
2019-04-03T13:25:32.454Z,15964
2019-04-03T13:26:32.997Z,15820
2019-04-03T13:27:36.344Z,15368
2019-04-03T13:28:33.433Z,15268
2019-04-03T13:29:32.088Z,15792
2019-04-03T13:30:32.291Z,16632
2019-04-03T13:31:32.270Z,18464
2019-04-03T13:32:31.776Z,19456
2019-04-03T13:33:32.481Z,20640
2019-04-03T13:34:34.081Z,23872
2019-04-03T13:35:32.237Z,25216
2019-04-03T13:36:32.529Z,23456
2019-04-03T13:37:33.005Z,24000
2019-04-03T13:38:36.052Z,23680
2019-04-03T13:39:35.188Z,20928